sensor_id;sensor_type;location;lat;lon;timestamp;P1;durP1;ratioP1;P2;durP2;ratioP2
8399;SDS011;4237;47.030;15.396;2022-11-15T00:01:14;131.70;;;54.83;;
8399;SDS011;4237;47.030;15.396;2022-11-15T00:03:42;134.63;;;57.00;;
8399;SDS011;4237;47.030;15.396;2022-11-15T00:06:10;132.43;;;55.47;;
8399;SDS011;4237;47.030;15.396;2022-11-15T00:08:38;140.43;;;57.60;;
8399;SDS011;4237;47.030;15.396;2022-11-15T00:11:08;133.17;;;55.90;;
8399;SDS011;4237;47.030;15.396;2022-11-15T00:13:36;138.83;;;58.03;;
8399;SDS011;4237;47.030;15.396;2022-11-15T00:16:05;140.30;;;56.60;;
8399;SDS011;4237;47.030;15.396;2022-11-15T00:18:33;132.23;;;55.57;;
8399;SDS011;4237;47.030;15.396;2022-11-15T00:21:05;128.50;;;56.00;;
8399;SDS011;4237;47.030;15.396;2022-11-15T00:23:34;142.63;;;57.07;;
8399;SDS011;4237;47.030;15.396;2022-11-15T00:26:02;136.90;;;56.60;;
8399;SDS011;4237;47.030;15.396;2022-11-15T00:28:31;130.50;;;55.73;;
8399;SDS011;4237;47.030;15.396;2022-11-15T00:31:00;122.40;;;53.40;;
8399;SDS011;4237;47.030;15.396;2022-11-15T00:33:29;123.77;;;54.10;;
8399;SDS011;4237;47.030;15.396;2022-11-15T00:36:05;126.37;;;54.30;;
8399;SDS011;4237;47.030;15.396;2022-11-15T00:38:34;123.03;;;53.20;;
8399;SDS011;4237;47.030;15.396;2022-11-15T00:41:03;123.47;;;53.97;;
8399;SDS011;4237;47.030;15.396;2022-11-15T00:43:32;124.13;;;55.90;;
8399;SDS011;4237;47.030;15.396;2022-11-15T00:46:01;115.20;;;53.53;;
8399;SDS011;4237;47.030;15.396;2022-11-15T00:48:30;110.37;;;52.67;;
8399;SDS011;4237;47.030;15.396;2022-11-15T00:50:58;112.80;;;53.33;;
8399;SDS011;4237;47.030;15.396;2022-11-15T00:53:26;109.40;;;51.93;;
8399;SDS011;4237;47.030;15.396;2022-11-15T00:55:55;113.60;;;53.20;;
8399;SDS011;4237;47.030;15.396;2022-11-15T00:58:23;109.57;;;52.37;;
8399;SDS011;4237;47.030;15.396;2022-11-15T01:00:52;105.57;;;50.97;;
8399;SDS011;4237;47.030;15.396;2022-11-15T01:03:20;105.40;;;51.43;;
8399;SDS011;4237;47.030;15.396;2022-11-15T01:05:48;105.87;;;51.60;;
8399;SDS011;4237;47.030;15.396;2022-11-15T01:08:16;110.60;;;51.50;;
8399;SDS011;4237;47.030;15.396;2022-11-15T01:10:44;100.80;;;50.63;;
8399;SDS011;4237;47.030;15.396;2022-11-15T01:13:13;102.03;;;50.23;;
8399;SDS011;4237;47.030;15.396;2022-11-15T01:15:41;102.37;;;50.33;;
8399;SDS011;4237;47.030;15.396;2022-11-15T01:18:09;104.47;;;49.90;;
8399;SDS011;4237;47.030;15.396;2022-11-15T01:20:41;99.53;;;49.67;;
8399;SDS011;4237;47.030;15.396;2022-11-15T01:23:09;94.23;;;48.83;;
8399;SDS011;4237;47.030;15.396;2022-11-15T01:25:37;100.87;;;49.67;;
8399;SDS011;4237;47.030;15.396;2022-11-15T01:28:06;98.20;;;49.07;;
8399;SDS011;4237;47.030;15.396;2022-11-15T01:30:35;92.97;;;48.30;;
8399;SDS011;4237;47.030;15.396;2022-11-15T01:33:04;106.97;;;51.90;;
8399;SDS011;4237;47.030;15.396;2022-11-15T01:35:32;113.60;;;53.10;;
8399;SDS011;4237;47.030;15.396;2022-11-15T01:38:00;120.93;;;55.10;;
8399;SDS011;4237;47.030;15.396;2022-11-15T01:40:28;127.07;;;53.87;;
8399;SDS011;4237;47.030;15.396;2022-11-15T01:42:57;116.13;;;53.70;;
8399;SDS011;4237;47.030;15.396;2022-11-15T01:45:25;104.03;;;50.30;;
8399;SDS011;4237;47.030;15.396;2022-11-15T01:47:54;104.63;;;51.17;;
8399;SDS011;4237;47.030;15.396;2022-11-15T01:50:29;105.13;;;48.97;;
8399;SDS011;4237;47.030;15.396;2022-11-15T01:52:54;103.37;;;49.53;;
8399;SDS011;4237;47.030;15.396;2022-11-15T01:55:23;104.60;;;51.03;;
8399;SDS011;4237;47.030;15.396;2022-11-15T01:57:53;95.47;;;49.53;;
8399;SDS011;4237;47.030;15.396;2022-11-15T02:00:21;104.37;;;50.33;;
8399;SDS011;4237;47.030;15.396;2022-11-15T02:02:50;102.47;;;51.57;;
8399;SDS011;4237;47.030;15.396;2022-11-15T02:05:18;109.53;;;51.50;;
8399;SDS011;4237;47.030;15.396;2022-11-15T02:07:46;120.50;;;50.70;;
8399;SDS011;4237;47.030;15.396;2022-11-15T02:10:19;128.70;;;55.30;;
8399;SDS011;4237;47.030;15.396;2022-11-15T02:12:47;101.17;;;50.93;;
8399;SDS011;4237;47.030;15.396;2022-11-15T02:15:16;103.07;;;48.90;;
8399;SDS011;4237;47.030;15.396;2022-11-15T02:20:27;91.30;;;46.83;;
8399;SDS011;4237;47.030;15.396;2022-11-15T02:26:07;92.80;;;48.67;;
8399;SDS011;4237;47.030;15.396;2022-11-15T02:30:53;79.60;;;42.93;;
8399;SDS011;4237;47.030;15.396;2022-11-15T02:35:59;87.57;;;45.37;;
8399;SDS011;4237;47.030;15.396;2022-11-15T02:38:30;82.50;;;45.07;;
8399;SDS011;4237;47.030;15.396;2022-11-15T02:41:03;91.50;;;46.67;;
8399;SDS011;4237;47.030;15.396;2022-11-15T02:43:45;99.93;;;48.50;;
8399;SDS011;4237;47.030;15.396;2022-11-15T02:46:26;100.93;;;47.37;;
8399;SDS011;4237;47.030;15.396;2022-11-15T02:48:55;108.53;;;49.93;;
8399;SDS011;4237;47.030;15.396;2022-11-15T02:51:24;103.37;;;50.50;;
8399;SDS011;4237;47.030;15.396;2022-11-15T02:53:52;106.13;;;49.67;;
8399;SDS011;4237;47.030;15.396;2022-11-15T02:56:20;97.37;;;48.87;;
8399;SDS011;4237;47.030;15.396;2022-11-15T02:59:13;93.90;;;47.57;;
8399;SDS011;4237;47.030;15.396;2022-11-15T03:03:51;102.53;;;48.97;;
8399;SDS011;4237;47.030;15.396;2022-11-15T03:06:24;117.50;;;51.93;;
8399;SDS011;4237;47.030;15.396;2022-11-15T03:09:11;116.13;;;52.10;;
8399;SDS011;4237;47.030;15.396;2022-11-15T03:11:23;102.93;;;49.53;;
8399;SDS011;4237;47.030;15.396;2022-11-15T03:14:02;112.50;;;51.03;;
8399;SDS011;4237;47.030;15.396;2022-11-15T03:16:45;116.43;;;49.83;;
8399;SDS011;4237;47.030;15.396;2022-11-15T03:19:26;106.07;;;50.77;;
8399;SDS011;4237;47.030;15.396;2022-11-15T03:21:53;97.67;;;48.57;;
8399;SDS011;4237;47.030;15.396;2022-11-15T03:24:23;95.60;;;47.97;;
8399;SDS011;4237;47.030;15.396;2022-11-15T03:26:53;96.70;;;47.30;;
8399;SDS011;4237;47.030;15.396;2022-11-15T03:29:24;93.50;;;45.87;;
8399;SDS011;4237;47.030;15.396;2022-11-15T03:31:54;87.33;;;45.97;;
8399;SDS011;4237;47.030;15.396;2022-11-15T03:36:51;84.80;;;45.33;;
8399;SDS011;4237;47.030;15.396;2022-11-15T03:39:20;82.50;;;44.73;;
8399;SDS011;4237;47.030;15.396;2022-11-15T03:47:28;76.97;;;41.37;;
8399;SDS011;4237;47.030;15.396;2022-11-15T03:49:54;70.73;;;40.70;;
8399;SDS011;4237;47.030;15.396;2022-11-15T03:52:22;70.67;;;40.07;;
8399;SDS011;4237;47.030;15.396;2022-11-15T03:54:52;72.57;;;40.73;;
8399;SDS011;4237;47.030;15.396;2022-11-15T03:57:20;71.80;;;40.33;;
8399;SDS011;4237;47.030;15.396;2022-11-15T03:59:50;66.30;;;38.20;;
8399;SDS011;4237;47.030;15.396;2022-11-15T04:02:18;62.33;;;37.47;;
8399;SDS011;4237;47.030;15.396;2022-11-15T04:04:47;64.87;;;38.27;;
8399;SDS011;4237;47.030;15.396;2022-11-15T04:07:15;69.83;;;38.33;;
8399;SDS011;4237;47.030;15.396;2022-11-15T04:09:43;77.60;;;42.33;;
8399;SDS011;4237;47.030;15.396;2022-11-15T04:12:30;74.80;;;40.37;;
8399;SDS011;4237;47.030;15.396;2022-11-15T04:15:00;69.47;;;37.60;;
8399;SDS011;4237;47.030;15.396;2022-11-15T04:17:35;61.10;;;36.37;;
8399;SDS011;4237;47.030;15.396;2022-11-15T04:20:04;58.87;;;35.67;;
8399;SDS011;4237;47.030;15.396;2022-11-15T04:22:53;64.13;;;37.70;;
8399;SDS011;4237;47.030;15.396;2022-11-15T04:25:40;63.77;;;37.00;;
8399;SDS011;4237;47.030;15.396;2022-11-15T04:28:09;70.67;;;39.87;;
8399;SDS011;4237;47.030;15.396;2022-11-15T04:30:38;71.50;;;38.87;;
8399;SDS011;4237;47.030;15.396;2022-11-15T04:33:06;71.17;;;38.40;;
8399;SDS011;4237;47.030;15.396;2022-11-15T04:35:34;62.50;;;36.13;;
8399;SDS011;4237;47.030;15.396;2022-11-15T04:38:03;56.80;;;34.80;;
8399;SDS011;4237;47.030;15.396;2022-11-15T04:40:32;54.47;;;35.27;;
8399;SDS011;4237;47.030;15.396;2022-11-15T04:43:00;52.33;;;33.13;;
8399;SDS011;4237;47.030;15.396;2022-11-15T04:45:29;54.00;;;34.37;;
8399;SDS011;4237;47.030;15.396;2022-11-15T04:47:57;56.00;;;35.23;;
8399;SDS011;4237;47.030;15.396;2022-11-15T04:50:25;56.27;;;34.60;;
8399;SDS011;4237;47.030;15.396;2022-11-15T04:52:53;58.33;;;35.83;;
8399;SDS011;4237;47.030;15.396;2022-11-15T04:55:22;63.27;;;37.47;;
8399;SDS011;4237;47.030;15.396;2022-11-15T04:57:56;63.57;;;37.47;;
8399;SDS011;4237;47.030;15.396;2022-11-15T05:00:20;56.37;;;35.90;;
8399;SDS011;4237;47.030;15.396;2022-11-15T05:02:48;58.10;;;36.27;;
8399;SDS011;4237;47.030;15.396;2022-11-15T05:05:34;83.53;;;48.53;;
8399;SDS011;4237;47.030;15.396;2022-11-15T05:08:03;81.93;;;48.33;;
8399;SDS011;4237;47.030;15.396;2022-11-15T05:10:31;67.00;;;38.93;;
8399;SDS011;4237;47.030;15.396;2022-11-15T05:12:59;61.83;;;36.67;;
8399;SDS011;4237;47.030;15.396;2022-11-15T05:15:28;62.67;;;36.70;;
8399;SDS011;4237;47.030;15.396;2022-11-15T05:17:59;55.27;;;34.33;;
8399;SDS011;4237;47.030;15.396;2022-11-15T05:20:30;59.57;;;35.27;;
8399;SDS011;4237;47.030;15.396;2022-11-15T05:22:58;54.17;;;35.50;;
8399;SDS011;4237;47.030;15.396;2022-11-15T05:25:27;56.87;;;35.57;;
8399;SDS011;4237;47.030;15.396;2022-11-15T05:27:55;54.37;;;33.63;;
8399;SDS011;4237;47.030;15.396;2022-11-15T05:30:23;59.97;;;35.93;;
8399;SDS011;4237;47.030;15.396;2022-11-15T05:32:51;62.10;;;40.80;;
8399;SDS011;4237;47.030;15.396;2022-11-15T05:35:34;60.87;;;35.77;;
8399;SDS011;4237;47.030;15.396;2022-11-15T05:38:01;84.23;;;51.77;;
8399;SDS011;4237;47.030;15.396;2022-11-15T05:40:30;81.63;;;46.37;;
8399;SDS011;4237;47.030;15.396;2022-11-15T05:42:59;64.60;;;37.97;;
8399;SDS011;4237;47.030;15.396;2022-11-15T05:45:29;72.17;;;42.73;;
8399;SDS011;4237;47.030;15.396;2022-11-15T05:47:58;67.63;;;38.70;;
8399;SDS011;4237;47.030;15.396;2022-11-15T05:50:27;60.87;;;36.27;;
8399;SDS011;4237;47.030;15.396;2022-11-15T05:52:55;70.83;;;38.90;;
8399;SDS011;4237;47.030;15.396;2022-11-15T05:55:24;135.60;;;76.10;;
8399;SDS011;4237;47.030;15.396;2022-11-15T05:57:52;103.80;;;62.77;;
8399;SDS011;4237;47.030;15.396;2022-11-15T06:00:20;62.80;;;36.97;;
8399;SDS011;4237;47.030;15.396;2022-11-15T06:02:49;74.20;;;40.67;;
8399;SDS011;4237;47.030;15.396;2022-11-15T06:05:17;120.70;;;46.13;;
8399;SDS011;4237;47.030;15.396;2022-11-15T06:07:45;109.70;;;50.37;;
8399;SDS011;4237;47.030;15.396;2022-11-15T06:10:13;132.83;;;50.07;;
8399;SDS011;4237;47.030;15.396;2022-11-15T06:12:42;130.00;;;46.43;;
8399;SDS011;4237;47.030;15.396;2022-11-15T06:15:10;125.67;;;46.23;;
8399;SDS011;4237;47.030;15.396;2022-11-15T06:17:38;128.67;;;47.60;;
8399;SDS011;4237;47.030;15.396;2022-11-15T06:20:06;141.17;;;47.13;;
8399;SDS011;4237;47.030;15.396;2022-11-15T06:22:35;191.27;;;48.33;;
8399;SDS011;4237;47.030;15.396;2022-11-15T06:25:03;235.40;;;50.23;;
8399;SDS011;4237;47.030;15.396;2022-11-15T06:27:31;294.13;;;52.57;;
8399;SDS011;4237;47.030;15.396;2022-11-15T06:30:00;191.00;;;52.83;;
8399;SDS011;4237;47.030;15.396;2022-11-15T06:32:29;226.70;;;50.67;;
8399;SDS011;4237;47.030;15.396;2022-11-15T06:34:59;282.10;;;53.37;;
8399;SDS011;4237;47.030;15.396;2022-11-15T06:37:27;312.50;;;52.33;;
8399;SDS011;4237;47.030;15.396;2022-11-15T06:39:56;286.90;;;50.50;;
8399;SDS011;4237;47.030;15.396;2022-11-15T06:42:24;261.53;;;48.43;;
8399;SDS011;4237;47.030;15.396;2022-11-15T06:44:52;367.43;;;54.90;;
8399;SDS011;4237;47.030;15.396;2022-11-15T06:47:20;244.33;;;48.97;;
8399;SDS011;4237;47.030;15.396;2022-11-15T06:49:48;338.07;;;52.07;;
8399;SDS011;4237;47.030;15.396;2022-11-15T06:52:17;242.00;;;46.13;;
8399;SDS011;4237;47.030;15.396;2022-11-15T06:54:49;208.30;;;46.37;;
8399;SDS011;4237;47.030;15.396;2022-11-15T06:57:17;422.87;;;65.60;;
8399;SDS011;4237;47.030;15.396;2022-11-15T06:59:45;252.43;;;49.97;;
8399;SDS011;4237;47.030;15.396;2022-11-15T07:02:13;176.93;;;49.30;;
8399;SDS011;4237;47.030;15.396;2022-11-15T07:04:41;147.80;;;48.50;;
8399;SDS011;4237;47.030;15.396;2022-11-15T07:07:10;312.70;;;52.83;;
8399;SDS011;4237;47.030;15.396;2022-11-15T07:09:38;152.80;;;48.27;;
8399;SDS011;4237;47.030;15.396;2022-11-15T07:12:06;231.83;;;57.10;;
8399;SDS011;4237;47.030;15.396;2022-11-15T07:14:34;250.23;;;49.73;;
8399;SDS011;4237;47.030;15.396;2022-11-15T07:17:05;157.73;;;49.53;;
8399;SDS011;4237;47.030;15.396;2022-11-15T07:19:34;156.40;;;47.07;;
8399;SDS011;4237;47.030;15.396;2022-11-15T07:22:02;152.53;;;48.53;;
8399;SDS011;4237;47.030;15.396;2022-11-15T07:24:30;126.57;;;45.57;;
8399;SDS011;4237;47.030;15.396;2022-11-15T07:26:58;112.87;;;45.60;;
8399;SDS011;4237;47.030;15.396;2022-11-15T07:29:26;152.37;;;46.07;;
8399;SDS011;4237;47.030;15.396;2022-11-15T07:31:55;139.83;;;46.97;;
8399;SDS011;4237;47.030;15.396;2022-11-15T07:34:23;110.37;;;46.43;;
8399;SDS011;4237;47.030;15.396;2022-11-15T07:36:51;145.93;;;47.37;;
8399;SDS011;4237;47.030;15.396;2022-11-15T07:39:21;121.70;;;45.80;;
8399;SDS011;4237;47.030;15.396;2022-11-15T07:41:49;157.87;;;48.70;;
8399;SDS011;4237;47.030;15.396;2022-11-15T07:44:19;132.83;;;44.90;;
8399;SDS011;4237;47.030;15.396;2022-11-15T07:46:47;120.20;;;45.90;;
8399;SDS011;4237;47.030;15.396;2022-11-15T07:49:16;94.90;;;43.33;;
8399;SDS011;4237;47.030;15.396;2022-11-15T07:51:44;97.40;;;44.67;;
8399;SDS011;4237;47.030;15.396;2022-11-15T07:54:12;94.70;;;43.90;;
8399;SDS011;4237;47.030;15.396;2022-11-15T07:56:40;88.30;;;42.20;;
8399;SDS011;4237;47.030;15.396;2022-11-15T07:59:09;89.17;;;42.23;;
8399;SDS011;4237;47.030;15.396;2022-11-15T08:01:37;85.13;;;41.80;;
8399;SDS011;4237;47.030;15.396;2022-11-15T08:04:05;134.27;;;42.83;;
8399;SDS011;4237;47.030;15.396;2022-11-15T08:06:33;99.23;;;44.47;;
8399;SDS011;4237;47.030;15.396;2022-11-15T08:09:01;101.07;;;43.30;;
8399;SDS011;4237;47.030;15.396;2022-11-15T08:11:30;88.40;;;40.60;;
8399;SDS011;4237;47.030;15.396;2022-11-15T08:13:58;93.83;;;42.67;;
8399;SDS011;4237;47.030;15.396;2022-11-15T08:16:26;93.07;;;41.70;;
8399;SDS011;4237;47.030;15.396;2022-11-15T08:18:54;86.90;;;40.20;;
8399;SDS011;4237;47.030;15.396;2022-11-15T08:21:23;85.23;;;39.93;;
8399;SDS011;4237;47.030;15.396;2022-11-15T08:23:51;78.87;;;40.33;;
8399;SDS011;4237;47.030;15.396;2022-11-15T08:26:19;85.97;;;40.50;;
8399;SDS011;4237;47.030;15.396;2022-11-15T08:28:47;71.40;;;39.97;;
8399;SDS011;4237;47.030;15.396;2022-11-15T08:31:17;77.67;;;39.83;;
8399;SDS011;4237;47.030;15.396;2022-11-15T08:33:46;76.00;;;39.33;;
8399;SDS011;4237;47.030;15.396;2022-11-15T08:36:15;79.27;;;41.30;;
8399;SDS011;4237;47.030;15.396;2022-11-15T08:38:43;81.67;;;39.47;;
8399;SDS011;4237;47.030;15.396;2022-11-15T08:41:17;73.80;;;39.10;;
8399;SDS011;4237;47.030;15.396;2022-11-15T08:43:44;81.10;;;41.17;;
8399;SDS011;4237;47.030;15.396;2022-11-15T08:46:12;78.50;;;39.80;;
8399;SDS011;4237;47.030;15.396;2022-11-15T08:48:41;85.53;;;42.57;;
8399;SDS011;4237;47.030;15.396;2022-11-15T08:51:09;85.30;;;44.33;;
8399;SDS011;4237;47.030;15.396;2022-11-15T08:53:38;87.60;;;42.30;;
8399;SDS011;4237;47.030;15.396;2022-11-15T08:56:09;92.37;;;44.90;;
8399;SDS011;4237;47.030;15.396;2022-11-15T08:58:38;93.43;;;43.03;;
8399;SDS011;4237;47.030;15.396;2022-11-15T09:01:13;87.97;;;42.67;;
8399;SDS011;4237;47.030;15.396;2022-11-15T09:03:36;88.43;;;43.70;;
8399;SDS011;4237;47.030;15.396;2022-11-15T09:06:04;89.87;;;41.63;;
8399;SDS011;4237;47.030;15.396;2022-11-15T09:08:32;89.03;;;43.00;;
8399;SDS011;4237;47.030;15.396;2022-11-15T09:11:04;91.37;;;43.77;;
8399;SDS011;4237;47.030;15.396;2022-11-15T09:13:33;94.43;;;43.03;;
8399;SDS011;4237;47.030;15.396;2022-11-15T09:16:04;86.13;;;42.07;;
8399;SDS011;4237;47.030;15.396;2022-11-15T09:18:32;85.90;;;42.43;;
8399;SDS011;4237;47.030;15.396;2022-11-15T09:21:01;81.10;;;41.27;;
8399;SDS011;4237;47.030;15.396;2022-11-15T09:23:29;84.70;;;40.37;;
8399;SDS011;4237;47.030;15.396;2022-11-15T09:25:58;76.07;;;38.20;;
8399;SDS011;4237;47.030;15.396;2022-11-15T09:28:28;76.00;;;39.63;;
8399;SDS011;4237;47.030;15.396;2022-11-15T09:30:57;74.40;;;39.80;;
8399;SDS011;4237;47.030;15.396;2022-11-15T09:33:26;71.53;;;38.50;;
8399;SDS011;4237;47.030;15.396;2022-11-15T09:35:59;73.93;;;39.67;;
8399;SDS011;4237;47.030;15.396;2022-11-15T09:38:24;67.97;;;38.33;;
8399;SDS011;4237;47.030;15.396;2022-11-15T09:40:59;74.45;;;39.40;;
8399;SDS011;4237;47.030;15.396;2022-11-15T09:43:32;65.10;;;;;
8399;SDS011;4237;47.030;15.396;2022-11-15T09:48:51;62.97;;;35.97;;
8399;SDS011;4237;47.030;15.396;2022-11-15T09:51:24;58.33;;;33.20;;
8399;SDS011;4237;47.030;15.396;2022-11-15T09:53:48;60.13;;;34.17;;
8399;SDS011;4237;47.030;15.396;2022-11-15T09:56:24;66.53;;;35.37;;
8399;SDS011;4237;47.030;15.396;2022-11-15T09:58:50;62.07;;;35.43;;
8399;SDS011;4237;47.030;15.396;2022-11-15T10:01:17;62.30;;;34.10;;
8399;SDS011;4237;47.030;15.396;2022-11-15T10:03:46;55.47;;;32.37;;
8399;SDS011;4237;47.030;15.396;2022-11-15T10:06:24;50.60;;;31.37;;
8399;SDS011;4237;47.030;15.396;2022-11-15T10:09:05;53.93;;;32.87;;
8399;SDS011;4237;47.030;15.396;2022-11-15T10:11:32;53.17;;;30.53;;
8399;SDS011;4237;47.030;15.396;2022-11-15T10:13:53;53.43;;;32.17;;
8399;SDS011;4237;47.030;15.396;2022-11-15T10:19:14;57.37;;;31.83;;
8399;SDS011;4237;47.030;15.396;2022-11-15T10:21:45;50.80;;;31.33;;
8399;SDS011;4237;47.030;15.396;2022-11-15T10:24:10;52.65;;;32.15;;
8399;SDS011;4237;47.030;15.396;2022-11-15T10:26:45;48.60;;;31.07;;
8399;SDS011;4237;47.030;15.396;2022-11-15T10:29:09;53.10;;;32.23;;
8399;SDS011;4237;47.030;15.396;2022-11-15T10:31:38;52.57;;;31.33;;
8399;SDS011;4237;47.030;15.396;2022-11-15T10:34:14;46.80;;;29.33;;
8399;SDS011;4237;47.030;15.396;2022-11-15T10:36:53;48.53;;;31.27;;
8399;SDS011;4237;47.030;15.396;2022-11-15T10:39:13;44.83;;;28.00;;
8399;SDS011;4237;47.030;15.396;2022-11-15T10:41:42;40.00;;;25.23;;
8399;SDS011;4237;47.030;15.396;2022-11-15T10:47:03;36.00;;;23.73;;
8399;SDS011;4237;47.030;15.396;2022-11-15T10:49:25;40.87;;;26.07;;
8399;SDS011;4237;47.030;15.396;2022-11-15T10:51:57;41.50;;;26.57;;
8399;SDS011;4237;47.030;15.396;2022-11-15T10:54:34;41.50;;;25.20;;
8399;SDS011;4237;47.030;15.396;2022-11-15T10:57:16;45.00;;;27.40;;
8399;SDS011;4237;47.030;15.396;2022-11-15T11:02:35;45.63;;;28.47;;
8399;SDS011;4237;47.030;15.396;2022-11-15T11:05:20;43.63;;;27.90;;
8399;SDS011;4237;47.030;15.396;2022-11-15T11:07:35;43.50;;;27.43;;
8399;SDS011;4237;47.030;15.396;2022-11-15T11:10:20;46.33;;;27.67;;
8399;SDS011;4237;47.030;15.396;2022-11-15T11:12:48;45.10;;;28.13;;
8399;SDS011;4237;47.030;15.396;2022-11-15T11:15:17;41.63;;;27.00;;
8399;SDS011;4237;47.030;15.396;2022-11-15T11:17:50;46.13;;;27.90;;
8399;SDS011;4237;47.030;15.396;2022-11-15T11:25:50;41.73;;;26.97;;
8399;SDS011;4237;47.030;15.396;2022-11-15T11:28:21;47.03;;;26.50;;
8399;SDS011;4237;47.030;15.396;2022-11-15T11:30:54;44.03;;;27.00;;
8399;SDS011;4237;47.030;15.396;2022-11-15T11:33:17;39.00;;;26.97;;
8399;SDS011;4237;47.030;15.396;2022-11-15T11:38:19;43.13;;;27.63;;
8399;SDS011;4237;47.030;15.396;2022-11-15T11:40:58;43.43;;;29.70;;
8399;SDS011;4237;47.030;15.396;2022-11-15T11:43:37;48.17;;;29.33;;
8399;SDS011;4237;47.030;15.396;2022-11-15T11:48:43;47.73;;;29.43;;
8399;SDS011;4237;47.030;15.396;2022-11-15T11:51:18;44.27;;;29.20;;
8399;SDS011;4237;47.030;15.396;2022-11-15T11:53:45;45.33;;;28.70;;
8399;SDS011;4237;47.030;15.396;2022-11-15T11:56:31;44.50;;;29.43;;
8399;SDS011;4237;47.030;15.396;2022-11-15T11:58:45;49.55;;;29.00;;
8399;SDS011;4237;47.030;15.396;2022-11-15T12:01:24;44.83;;;27.13;;
8399;SDS011;4237;47.030;15.396;2022-11-15T12:03:45;42.00;;;27.40;;
8399;SDS011;4237;47.030;15.396;2022-11-15T12:09:06;48.70;;;27.13;;
8399;SDS011;4237;47.030;15.396;2022-11-15T12:11:38;50.10;;;27.87;;
8399;SDS011;4237;47.030;15.396;2022-11-15T12:14:08;45.63;;;27.67;;
8399;SDS011;4237;47.030;15.396;2022-11-15T12:16:35;47.20;;;28.37;;
8399;SDS011;4237;47.030;15.396;2022-11-15T12:19:03;54.20;;;29.80;;
8399;SDS011;4237;47.030;15.396;2022-11-15T12:21:34;48.17;;;28.90;;
8399;SDS011;4237;47.030;15.396;2022-11-15T12:24:06;53.87;;;29.00;;
8399;SDS011;4237;47.030;15.396;2022-11-15T12:27:22;56.57;;;30.67;;
8399;SDS011;4237;47.030;15.396;2022-11-15T12:29:12;52.23;;;31.00;;
8399;SDS011;4237;47.030;15.396;2022-11-15T12:31:40;52.73;;;30.23;;
8399;SDS011;4237;47.030;15.396;2022-11-15T12:36:47;50.43;;;29.37;;
8399;SDS011;4237;47.030;15.396;2022-11-15T12:39:16;51.40;;;28.77;;
8399;SDS011;4237;47.030;15.396;2022-11-15T12:42:34;46.47;;;27.67;;
8399;SDS011;4237;47.030;15.396;2022-11-15T13:02:31;45.53;;;25.33;;
8399;SDS011;4237;47.030;15.396;2022-11-15T13:15:34;39.03;;;24.60;;
8399;SDS011;4237;47.030;15.396;2022-11-15T13:18:24;41.07;;;25.20;;
8399;SDS011;4237;47.030;15.396;2022-11-15T13:20:48;41.13;;;25.37;;
8399;SDS011;4237;47.030;15.396;2022-11-15T13:23:16;40.47;;;24.73;;
8399;SDS011;4237;47.030;15.396;2022-11-15T13:25:59;41.87;;;25.67;;
8399;SDS011;4237;47.030;15.396;2022-11-15T13:33:53;40.30;;;25.43;;
8399;SDS011;4237;47.030;15.396;2022-11-15T13:36:26;43.20;;;25.50;;
8399;SDS011;4237;47.030;15.396;2022-11-15T13:39:06;43.40;;;25.20;;
8399;SDS011;4237;47.030;15.396;2022-11-15T13:41:35;36.00;;;24.13;;
8399;SDS011;4237;47.030;15.396;2022-11-15T13:44:05;36.40;;;25.40;;
8399;SDS011;4237;47.030;15.396;2022-11-15T13:46:34;38.70;;;25.07;;
8399;SDS011;4237;47.030;15.396;2022-11-15T13:49:03;39.87;;;24.80;;
8399;SDS011;4237;47.030;15.396;2022-11-15T13:54:20;36.77;;;23.80;;
8399;SDS011;4237;47.030;15.396;2022-11-15T13:56:53;38.50;;;24.93;;
8399;SDS011;4237;47.030;15.396;2022-11-15T14:01:48;39.77;;;26.07;;
8399;SDS011;4237;47.030;15.396;2022-11-15T14:04:19;37.83;;;25.13;;
8399;SDS011;4237;47.030;15.396;2022-11-15T14:06:49;37.55;;;24.60;;
8399;SDS011;4237;47.030;15.396;2022-11-15T14:11:57;34.30;;;22.73;;
8399;SDS011;4237;47.030;15.396;2022-11-15T14:14:25;34.80;;;23.67;;
8399;SDS011;4237;47.030;15.396;2022-11-15T14:16:56;38.17;;;23.00;;
8399;SDS011;4237;47.030;15.396;2022-11-15T14:24:41;34.20;;;23.10;;
8399;SDS011;4237;47.030;15.396;2022-11-15T14:27:17;33.23;;;22.73;;
8399;SDS011;4237;47.030;15.396;2022-11-15T14:29:46;34.57;;;22.93;;
8399;SDS011;4237;47.030;15.396;2022-11-15T14:32:16;32.47;;;22.23;;
8399;SDS011;4237;47.030;15.396;2022-11-15T14:34:45;29.50;;;20.97;;
8399;SDS011;4237;47.030;15.396;2022-11-15T14:37:35;30.20;;;21.40;;
8399;SDS011;4237;47.030;15.396;2022-11-15T14:39:43;32.83;;;21.87;;
8399;SDS011;4237;47.030;15.396;2022-11-15T14:42:11;33.63;;;23.63;;
8399;SDS011;4237;47.030;15.396;2022-11-15T14:44:39;40.93;;;26.83;;
8399;SDS011;4237;47.030;15.396;2022-11-15T14:47:07;42.40;;;27.50;;
8399;SDS011;4237;47.030;15.396;2022-11-15T14:49:36;33.83;;;22.23;;
8399;SDS011;4237;47.030;15.396;2022-11-15T14:52:19;35.30;;;23.70;;
8399;SDS011;4237;47.030;15.396;2022-11-15T14:54:46;30.65;;;22.00;;
8399;SDS011;4237;47.030;15.396;2022-11-15T14:57:14;32.85;;;22.10;;
8399;SDS011;4237;47.030;15.396;2022-11-15T14:59:45;34.93;;;22.70;;
8399;SDS011;4237;47.030;15.396;2022-11-15T15:02:23;34.43;;;21.83;;
8399;SDS011;4237;47.030;15.396;2022-11-15T15:04:51;34.10;;;22.53;;
8399;SDS011;4237;47.030;15.396;2022-11-15T15:07:20;40.07;;;27.73;;
8399;SDS011;4237;47.030;15.396;2022-11-15T15:09:49;33.70;;;23.60;;
8399;SDS011;4237;47.030;15.396;2022-11-15T15:12:18;34.50;;;23.17;;
8399;SDS011;4237;47.030;15.396;2022-11-15T15:14:47;31.87;;;21.87;;
8399;SDS011;4237;47.030;15.396;2022-11-15T15:17:16;32.07;;;22.67;;
8399;SDS011;4237;47.030;15.396;2022-11-15T15:19:44;33.00;;;22.00;;
8399;SDS011;4237;47.030;15.396;2022-11-15T15:22:13;32.03;;;22.10;;
8399;SDS011;4237;47.030;15.396;2022-11-15T15:24:43;30.13;;;20.43;;
8399;SDS011;4237;47.030;15.396;2022-11-15T15:27:12;31.93;;;21.17;;
8399;SDS011;4237;47.030;15.396;2022-11-15T15:29:40;35.60;;;23.17;;
8399;SDS011;4237;47.030;15.396;2022-11-15T15:32:10;31.50;;;21.30;;
8399;SDS011;4237;47.030;15.396;2022-11-15T15:34:38;30.05;;;21.00;;
8399;SDS011;4237;47.030;15.396;2022-11-15T15:37:12;32.67;;;21.77;;
8399;SDS011;4237;47.030;15.396;2022-11-15T15:39:36;33.77;;;21.23;;
8399;SDS011;4237;47.030;15.396;2022-11-15T15:42:04;31.83;;;21.53;;
8399;SDS011;4237;47.030;15.396;2022-11-15T15:44:32;34.20;;;22.97;;
8399;SDS011;4237;47.030;15.396;2022-11-15T15:47:00;32.10;;;22.60;;
8399;SDS011;4237;47.030;15.396;2022-11-15T15:49:29;32.30;;;22.37;;
8399;SDS011;4237;47.030;15.396;2022-11-15T15:51:57;32.07;;;22.10;;
8399;SDS011;4237;47.030;15.396;2022-11-15T15:54:25;31.37;;;23.07;;
8399;SDS011;4237;47.030;15.396;2022-11-15T15:56:53;28.93;;;21.20;;
8399;SDS011;4237;47.030;15.396;2022-11-15T15:59:21;33.97;;;21.67;;
8399;SDS011;4237;47.030;15.396;2022-11-15T16:01:50;31.20;;;21.60;;
8399;SDS011;4237;47.030;15.396;2022-11-15T16:04:18;27.40;;;20.30;;
8399;SDS011;4237;47.030;15.396;2022-11-15T16:06:46;29.87;;;19.57;;
8399;SDS011;4237;47.030;15.396;2022-11-15T16:09:16;32.03;;;21.13;;
8399;SDS011;4237;47.030;15.396;2022-11-15T16:11:45;34.03;;;22.50;;
8399;SDS011;4237;47.030;15.396;2022-11-15T16:14:14;27.37;;;18.87;;
8399;SDS011;4237;47.030;15.396;2022-11-15T16:16:42;28.40;;;18.80;;
8399;SDS011;4237;47.030;15.396;2022-11-15T16:19:10;26.63;;;19.17;;
8399;SDS011;4237;47.030;15.396;2022-11-15T16:21:39;26.83;;;18.10;;